Rebel Creek, Nevada
Current Conditions -  °F | °C
As of 12:56 AM on Friday 31 Oct 2014 (Local Time) from KWMC Reporting Station
Clear Clear  
Wind Chill: 41°   Ceiling: Unl
Heat Index: 41°   Visibility: 10mi
Dew Point: 21°   Wind: 0mph
Humidity: 45%   Direction: NA
Pressure: 29.91"   Gusts: NA
Location:  41.7393°N, 118.104°W
Report Text: KWMC 310756Z AUTO 00000KT 10SM CLR 05/M06 A2991 RMK AO2 SLP107 T00501061 402111011
Loading
Personal Weather Stations






























Interactive Weather Map
Tropical Storm Tracking
New forecast layout! Learn more

10-Day Weather Forecast

Advertisements
Track Severe Weather on mobile